sensor_id;sensor_type;location;lat;lon;timestamp;pressure;altitude;pressure_sealevel;temperature;humidity
59073;BME280;44859;51.934;15.554;2023-08-17T00:01:25;100222.20;;;21.14;79.30
59073;BME280;44859;51.934;15.554;2023-08-17T00:04:20;100219.52;;;20.89;80.96
59073;BME280;44859;51.934;15.554;2023-08-17T00:07:31;100219.81;;;20.54;82.95
59073;BME280;44859;51.934;15.554;2023-08-17T00:10:36;100216.55;;;20.09;84.92
59073;BME280;44859;51.934;15.554;2023-08-17T00:17:46;100211.49;;;19.69;88.31
59073;BME280;44859;51.934;15.554;2023-08-17T00:24:49;100192.59;;;19.36;92.24
59073;BME280;44859;51.934;15.554;2023-08-17T00:27:46;100181.67;;;19.28;94.45
59073;BME280;44859;51.934;15.554;2023-08-17T00:33:22;100172.15;;;19.11;96.57
59073;BME280;44859;51.934;15.554;2023-08-17T00:43:50;100176.16;;;18.93;99.29
59073;BME280;44859;51.934;15.554;2023-08-17T00:46:43;100176.26;;;18.85;100.00
59073;BME280;44859;51.934;15.554;2023-08-17T00:49:37;100181.33;;;18.79;99.99
59073;BME280;44859;51.934;15.554;2023-08-17T00:56:38;100183.37;;;18.71;100.00
59073;BME280;44859;51.934;15.554;2023-08-17T01:03:09;100193.65;;;18.62;100.00
59073;BME280;44859;51.934;15.554;2023-08-17T01:06:28;100192.72;;;18.60;100.00
59073;BME280;44859;51.934;15.554;2023-08-17T01:20:45;100210.58;;;18.47;100.00
59073;BME280;44859;51.934;15.554;2023-08-17T01:24:00;100213.14;;;18.42;100.00
59073;BME280;44859;51.934;15.554;2023-08-17T01:27:51;100210.33;;;18.39;100.00
59073;BME280;44859;51.934;15.554;2023-08-17T01:30:18;100205.41;;;18.39;100.00
59073;BME280;44859;51.934;15.554;2023-08-17T01:33:24;100193.24;;;18.35;100.00
59073;BME280;44859;51.934;15.554;2023-08-17T01:40:23;100184.14;;;18.32;100.00
59073;BME280;44859;51.934;15.554;2023-08-17T01:46:01;100177.30;;;18.20;100.00
59073;BME280;44859;51.934;15.554;2023-08-17T01:49:23;100169.23;;;18.16;100.00
59073;BME280;44859;51.934;15.554;2023-08-17T01:52:08;100157.95;;;18.12;100.00
59073;BME280;44859;51.934;15.554;2023-08-17T01:59:36;100147.32;;;17.97;100.00
59073;BME280;44859;51.934;15.554;2023-08-17T02:02:30;100136.36;;;17.91;100.00
59073;BME280;44859;51.934;15.554;2023-08-17T02:05:48;100123.01;;;17.89;100.00
59073;BME280;44859;51.934;15.554;2023-08-17T02:08:02;100113.26;;;17.86;100.00
59073;BME280;44859;51.934;15.554;2023-08-17T02:14:30;100089.44;;;17.77;100.00
59073;BME280;44859;51.934;15.554;2023-08-17T02:17:40;100104.19;;;17.74;100.00
59073;BME280;44859;51.934;15.554;2023-08-17T02:21:15;100105.59;;;17.69;100.00
59073;BME280;44859;51.934;15.554;2023-08-17T02:24:15;100097.14;;;17.66;100.00
59073;BME280;44859;51.934;15.554;2023-08-17T02:33:41;100117.15;;;17.60;100.00
59073;BME280;44859;51.934;15.554;2023-08-17T02:36:38;100113.98;;;17.59;100.00
59073;BME280;44859;51.934;15.554;2023-08-17T02:43:12;100114.29;;;17.55;100.00
59073;BME280;44859;51.934;15.554;2023-08-17T02:49:13;100128.02;;;17.52;100.00
59073;BME280;44859;51.934;15.554;2023-08-17T02:55:29;100147.77;;;17.51;100.00
59073;BME280;44859;51.934;15.554;2023-08-17T02:58:10;100144.34;;;17.49;100.00
59073;BME280;44859;51.934;15.554;2023-08-17T03:01:08;100152.77;;;17.46;100.00
59073;BME280;44859;51.934;15.554;2023-08-17T03:10:07;100160.31;;;17.35;100.00
59073;BME280;44859;51.934;15.554;2023-08-17T03:12:54;100164.90;;;17.35;100.00
59073;BME280;44859;51.934;15.554;2023-08-17T03:19:38;100161.53;;;17.35;100.00
59073;BME280;44859;51.934;15.554;2023-08-17T03:23:13;100156.73;;;17.38;100.00
59073;BME280;44859;51.934;15.554;2023-08-17T03:26:49;100151.14;;;17.34;100.00
59073;BME280;44859;51.934;15.554;2023-08-17T03:39:51;100163.73;;;17.34;100.00
59073;BME280;44859;51.934;15.554;2023-08-17T03:42:25;100160.00;;;17.32;100.00
59073;BME280;44859;51.934;15.554;2023-08-17T03:55:20;100148.45;;;17.39;100.00
59073;BME280;44859;51.934;15.554;2023-08-17T03:58:41;100135.63;;;17.37;100.00
59073;BME280;44859;51.934;15.554;2023-08-17T04:01:56;100122.70;;;17.39;100.00
59073;BME280;44859;51.934;15.554;2023-08-17T04:04:45;100114.10;;;17.36;100.00
59073;BME280;44859;51.934;15.554;2023-08-17T04:07:31;100105.81;;;17.35;100.00
59073;BME280;44859;51.934;15.554;2023-08-17T04:10:52;100098.14;;;17.35;100.00
59073;BME280;44859;51.934;15.554;2023-08-17T04:17:31;100074.81;;;17.36;100.00
59073;BME280;44859;51.934;15.554;2023-08-17T04:20:48;100063.08;;;17.37;100.00
59073;BME280;44859;51.934;15.554;2023-08-17T04:23:52;100057.38;;;17.35;100.00
59073;BME280;44859;51.934;15.554;2023-08-17T04:26:54;100060.64;;;17.34;100.00
59073;BME280;44859;51.934;15.554;2023-08-17T04:29:40;100060.32;;;17.33;100.00
59073;BME280;44859;51.934;15.554;2023-08-17T04:33:03;100059.32;;;17.32;100.00
59073;BME280;44859;51.934;15.554;2023-08-17T04:35:51;100061.84;;;17.32;100.00
59073;BME280;44859;51.934;15.554;2023-08-17T04:38:30;100065.40;;;17.32;100.00
59073;BME280;44859;51.934;15.554;2023-08-17T04:41:28;100067.65;;;17.32;100.00
59073;BME280;44859;51.934;15.554;2023-08-17T04:44:38;100071.38;;;17.32;100.00
59073;BME280;44859;51.934;15.554;2023-08-17T04:47:50;100073.21;;;17.32;100.00
59073;BME280;44859;51.934;15.554;2023-08-17T04:54:34;100083.23;;;17.25;100.00
59073;BME280;44859;51.934;15.554;2023-08-17T05:08:24;100106.91;;;17.22;100.00
59073;BME280;44859;51.934;15.554;2023-08-17T05:15:10;100114.44;;;17.23;100.00
59073;BME280;44859;51.934;15.554;2023-08-17T05:18:24;100126.13;;;17.23;100.00
59073;BME280;44859;51.934;15.554;2023-08-17T05:25:20;100138.34;;;17.29;100.00
59073;BME280;44859;51.934;15.554;2023-08-17T05:32:21;100149.55;;;17.39;100.00
59073;BME280;44859;51.934;15.554;2023-08-17T05:35:57;100154.64;;;17.42;100.00
59073;BME280;44859;51.934;15.554;2023-08-17T05:39:21;100152.59;;;17.48;100.00
59073;BME280;44859;51.934;15.554;2023-08-17T05:42:43;100150.95;;;17.51;100.00
59073;BME280;44859;51.934;15.554;2023-08-17T05:46:06;100148.77;;;17.57;100.00
59073;BME280;44859;51.934;15.554;2023-08-17T05:49:22;100154.65;;;17.59;100.00
59073;BME280;44859;51.934;15.554;2023-08-17T05:57:30;100170.08;;;17.62;100.00
59073;BME280;44859;51.934;15.554;2023-08-17T06:06:26;100175.95;;;17.65;100.00
59073;BME280;44859;51.934;15.554;2023-08-17T06:09:02;100179.42;;;17.66;100.00
59073;BME280;44859;51.934;15.554;2023-08-17T06:12:13;100183.38;;;17.67;100.00
59073;BME280;44859;51.934;15.554;2023-08-17T06:15:03;100186.50;;;17.71;100.00
59073;BME280;44859;51.934;15.554;2023-08-17T06:17:44;100188.20;;;17.74;100.00
59073;BME280;44859;51.934;15.554;2023-08-17T06:20:43;100186.47;;;17.74;100.00
59073;BME280;44859;51.934;15.554;2023-08-17T06:27:16;100189.42;;;17.82;100.00
59073;BME280;44859;51.934;15.554;2023-08-17T06:30:31;100190.53;;;17.89;100.00
59073;BME280;44859;51.934;15.554;2023-08-17T06:33:25;100197.94;;;17.94;100.00
59073;BME280;44859;51.934;15.554;2023-08-17T06:36:14;100197.14;;;17.95;100.00
59073;BME280;44859;51.934;15.554;2023-08-17T06:39:07;100194.99;;;17.96;100.00
59073;BME280;44859;51.934;15.554;2023-08-17T06:42:21;100194.34;;;18.01;100.00
59073;BME280;44859;51.934;15.554;2023-08-17T06:45:33;100195.86;;;18.04;100.00
59073;BME280;44859;51.934;15.554;2023-08-17T06:48:04;100196.02;;;18.11;100.00
59073;BME280;44859;51.934;15.554;2023-08-17T06:50:55;100197.98;;;18.16;100.00
59073;BME280;44859;51.934;15.554;2023-08-17T06:56:27;100204.30;;;18.29;100.00
59073;BME280;44859;51.934;15.554;2023-08-17T06:59:18;100203.23;;;18.34;100.00
59073;BME280;44859;51.934;15.554;2023-08-17T07:01:59;100195.88;;;18.38;100.00
59073;BME280;44859;51.934;15.554;2023-08-17T07:05:10;100189.50;;;18.46;100.00
59073;BME280;44859;51.934;15.554;2023-08-17T07:07:53;100187.89;;;18.63;100.00
59073;BME280;44859;51.934;15.554;2023-08-17T07:10:44;100191.55;;;18.74;100.00
59073;BME280;44859;51.934;15.554;2023-08-17T07:13:42;100187.41;;;18.88;100.00
59073;BME280;44859;51.934;15.554;2023-08-17T07:16:43;100182.64;;;18.97;100.00
59073;BME280;44859;51.934;15.554;2023-08-17T07:19:14;100180.55;;;19.01;100.00
59073;BME280;44859;51.934;15.554;2023-08-17T07:22:25;100189.35;;;18.98;100.00
59073;BME280;44859;51.934;15.554;2023-08-17T07:25:29;100194.70;;;18.91;100.00
59073;BME280;44859;51.934;15.554;2023-08-17T07:28:24;100199.65;;;18.84;100.00
59073;BME280;44859;51.934;15.554;2023-08-17T07:38:32;100197.77;;;19.06;100.00
59073;BME280;44859;51.934;15.554;2023-08-17T07:44:09;100196.66;;;19.39;100.00
59073;BME280;44859;51.934;15.554;2023-08-17T07:46:59;100202.31;;;19.42;100.00
59073;BME280;44859;51.934;15.554;2023-08-17T07:49:38;100203.31;;;19.45;100.00
59073;BME280;44859;51.934;15.554;2023-08-17T07:56:06;100218.63;;;19.58;100.00
59073;BME280;44859;51.934;15.554;2023-08-17T07:59:07;100223.08;;;19.65;100.00
59073;BME280;44859;51.934;15.554;2023-08-17T08:02:03;100227.85;;;19.79;100.00
59073;BME280;44859;51.934;15.554;2023-08-17T08:08:41;100231.54;;;20.02;100.00
59073;BME280;44859;51.934;15.554;2023-08-17T08:11:10;100225.70;;;20.03;100.00
59073;BME280;44859;51.934;15.554;2023-08-17T08:17:15;100216.08;;;20.28;100.00
59073;BME280;44859;51.934;15.554;2023-08-17T08:20:14;100212.40;;;20.25;100.00
59073;BME280;44859;51.934;15.554;2023-08-17T08:23:22;100213.86;;;20.16;100.00
59073;BME280;44859;51.934;15.554;2023-08-17T08:29:26;100216.20;;;20.07;100.00
59073;BME280;44859;51.934;15.554;2023-08-17T08:32:15;100213.11;;;20.09;100.00
59073;BME280;44859;51.934;15.554;2023-08-17T08:35:20;100212.58;;;20.14;100.00
59073;BME280;44859;51.934;15.554;2023-08-17T08:38:10;100209.21;;;20.24;100.00
59073;BME280;44859;51.934;15.554;2023-08-17T08:44:18;100209.31;;;20.69;100.00
59073;BME280;44859;51.934;15.554;2023-08-17T08:50:21;100212.77;;;20.89;99.96
59073;BME280;44859;51.934;15.554;2023-08-17T08:53:27;100227.55;;;20.90;99.61
59073;BME280;44859;51.934;15.554;2023-08-17T08:59:35;100234.86;;;20.83;97.90
59073;BME280;44859;51.934;15.554;2023-08-17T09:02:25;100234.52;;;20.87;97.90
59073;BME280;44859;51.934;15.554;2023-08-17T09:05:35;100238.02;;;20.96;97.67
59073;BME280;44859;51.934;15.554;2023-08-17T09:08:13;100235.26;;;20.91;97.06
59073;BME280;44859;51.934;15.554;2023-08-17T09:14:21;100231.96;;;20.88;96.84
59073;BME280;44859;51.934;15.554;2023-08-17T09:20:01;100226.71;;;20.93;96.71
59073;BME280;44859;51.934;15.554;2023-08-17T09:22:59;100230.84;;;21.13;96.52
59073;BME280;44859;51.934;15.554;2023-08-17T09:25:31;100233.86;;;21.39;95.48
59073;BME280;44859;51.934;15.554;2023-08-17T09:28:21;100229.30;;;21.54;95.41
59073;BME280;44859;51.934;15.554;2023-08-17T09:31:25;100224.26;;;21.57;94.74
59073;BME280;44859;51.934;15.554;2023-08-17T09:34:22;100214.32;;;21.62;94.14
59073;BME280;44859;51.934;15.554;2023-08-17T09:37:42;100212.91;;;21.66;93.06
59073;BME280;44859;51.934;15.554;2023-08-17T09:40:47;100205.98;;;21.80;92.67
59073;BME280;44859;51.934;15.554;2023-08-17T09:43:36;100201.80;;;21.75;91.64
59073;BME280;44859;51.934;15.554;2023-08-17T09:46:34;100194.98;;;21.67;90.89
59073;BME280;44859;51.934;15.554;2023-08-17T09:49:11;100193.48;;;21.60;90.89
59073;BME280;44859;51.934;15.554;2023-08-17T09:52:23;100184.30;;;21.58;90.88
59073;BME280;44859;51.934;15.554;2023-08-17T09:55:03;100182.94;;;21.63;90.65
59073;BME280;44859;51.934;15.554;2023-08-17T09:58:28;100178.60;;;21.64;90.29
59073;BME280;44859;51.934;15.554;2023-08-17T10:01:19;100174.48;;;21.64;90.21
59073;BME280;44859;51.934;15.554;2023-08-17T10:03:52;100171.88;;;21.67;90.52
59073;BME280;44859;51.934;15.554;2023-08-17T10:06:34;100173.24;;;21.76;91.01
59073;BME280;44859;51.934;15.554;2023-08-17T10:09:06;100167.36;;;21.86;90.86
59073;BME280;44859;51.934;15.554;2023-08-17T10:11:43;100159.80;;;22.06;90.75
59073;BME280;44859;51.934;15.554;2023-08-17T10:14:26;100159.75;;;22.20;90.04
59073;BME280;44859;51.934;15.554;2023-08-17T10:17:10;100157.35;;;22.25;90.19
59073;BME280;44859;51.934;15.554;2023-08-17T10:19:51;100157.09;;;22.57;89.39
59073;BME280;44859;51.934;15.554;2023-08-17T10:22:52;100154.74;;;23.00;88.74
59073;BME280;44859;51.934;15.554;2023-08-17T10:29:57;100155.46;;;22.94;84.85
59073;BME280;44859;51.934;15.554;2023-08-17T10:32:41;100150.48;;;23.11;84.31
59073;BME280;44859;51.934;15.554;2023-08-17T10:35:26;100144.38;;;23.22;83.74
59073;BME280;44859;51.934;15.554;2023-08-17T10:38:20;100147.98;;;23.25;84.29
59073;BME280;44859;51.934;15.554;2023-08-17T10:44:48;100155.46;;;23.17;83.97
59073;BME280;44859;51.934;15.554;2023-08-17T10:47:44;100157.55;;;23.10;83.60
59073;BME280;44859;51.934;15.554;2023-08-17T10:57:34;100156.77;;;22.97;83.32
59073;BME280;44859;51.934;15.554;2023-08-17T11:01:03;100150.69;;;23.16;83.45
59073;BME280;44859;51.934;15.554;2023-08-17T11:04:15;100149.44;;;23.42;83.18
59073;BME280;44859;51.934;15.554;2023-08-17T11:07:11;100156.96;;;23.74;82.18
59073;BME280;44859;51.934;15.554;2023-08-17T11:13:58;100143.06;;;23.96;79.75
59073;BME280;44859;51.934;15.554;2023-08-17T11:24:42;100143.34;;;24.08;78.43
59073;BME280;44859;51.934;15.554;2023-08-17T11:42:52;100134.78;;;25.65;73.41
59073;BME280;44859;51.934;15.554;2023-08-17T11:46:53;100128.36;;;26.03;72.74
59073;BME280;44859;51.934;15.554;2023-08-17T11:54:10;100114.77;;;26.34;70.63
59073;BME280;44859;51.934;15.554;2023-08-17T11:58:41;100117.66;;;26.48;69.30
59073;BME280;44859;51.934;15.554;2023-08-17T12:02:39;100116.42;;;26.40;68.65
59073;BME280;44859;51.934;15.554;2023-08-17T12:05:33;100118.42;;;26.15;69.51
59073;BME280;44859;51.934;15.554;2023-08-17T12:09:04;100119.38;;;25.86;69.96
59073;BME280;44859;51.934;15.554;2023-08-17T12:11:35;100116.05;;;25.55;70.61
59073;BME280;44859;51.934;15.554;2023-08-17T12:14:26;100115.63;;;25.20;71.20
59073;BME280;44859;51.934;15.554;2023-08-17T12:17:04;100120.34;;;25.00;71.54
59073;BME280;44859;51.934;15.554;2023-08-17T12:23:33;100112.92;;;24.73;71.98
59073;BME280;44859;51.934;15.554;2023-08-17T12:26:17;100108.95;;;24.92;72.46
59073;BME280;44859;51.934;15.554;2023-08-17T12:29:51;100101.22;;;25.23;71.76
59073;BME280;44859;51.934;15.554;2023-08-17T12:33:49;100094.96;;;25.51;70.62
59073;BME280;44859;51.934;15.554;2023-08-17T12:36:34;100097.35;;;25.52;69.56
59073;BME280;44859;51.934;15.554;2023-08-17T12:39:56;100097.26;;;25.38;69.67
59073;BME280;44859;51.934;15.554;2023-08-17T12:43:14;100093.74;;;25.55;69.99
59073;BME280;44859;51.934;15.554;2023-08-17T12:45:51;100092.30;;;25.73;69.34
59073;BME280;44859;51.934;15.554;2023-08-17T12:48:50;100089.53;;;25.61;68.49
59073;BME280;44859;51.934;15.554;2023-08-17T12:51:46;100086.30;;;25.53;68.61
59073;BME280;44859;51.934;15.554;2023-08-17T12:54:23;100086.08;;;25.71;68.68
59073;BME280;44859;51.934;15.554;2023-08-17T12:56:58;100084.47;;;25.89;68.27
59073;BME280;44859;51.934;15.554;2023-08-17T13:00:41;100082.01;;;25.91;67.19
59073;BME280;44859;51.934;15.554;2023-08-17T13:13:15;100079.54;;;26.57;66.63
59073;BME280;44859;51.934;15.554;2023-08-17T13:16:05;100078.40;;;26.81;64.96
59073;BME280;44859;51.934;15.554;2023-08-17T13:18:48;100077.10;;;26.73;64.47
59073;BME280;44859;51.934;15.554;2023-08-17T13:22:03;100071.77;;;26.82;63.60
59073;BME280;44859;51.934;15.554;2023-08-17T13:24:42;100063.37;;;26.80;63.23
59073;BME280;44859;51.934;15.554;2023-08-17T13:27:31;100055.80;;;26.70;63.22
59073;BME280;44859;51.934;15.554;2023-08-17T13:30:49;100054.14;;;26.74;62.86
59073;BME280;44859;51.934;15.554;2023-08-17T13:33:29;100046.97;;;26.85;62.67
59073;BME280;44859;51.934;15.554;2023-08-17T13:36:08;100042.74;;;26.94;62.10
59073;BME280;44859;51.934;15.554;2023-08-17T13:39:02;100036.63;;;27.01;62.27
59073;BME280;44859;51.934;15.554;2023-08-17T13:41:29;100031.52;;;27.05;61.68
59073;BME280;44859;51.934;15.554;2023-08-17T13:43:59;100033.95;;;26.95;61.64
59073;BME280;44859;51.934;15.554;2023-08-17T13:46:32;100034.01;;;26.67;61.31
59073;BME280;44859;51.934;15.554;2023-08-17T13:49:15;100031.96;;;26.65;61.98
59073;BME280;44859;51.934;15.554;2023-08-17T13:51:45;100031.17;;;26.71;61.51
59073;BME280;44859;51.934;15.554;2023-08-17T13:54:12;100020.30;;;26.66;61.36
59073;BME280;44859;51.934;15.554;2023-08-17T13:56:44;100017.41;;;26.79;61.53
59073;BME280;44859;51.934;15.554;2023-08-17T13:59:39;100018.71;;;26.87;61.26
59073;BME280;44859;51.934;15.554;2023-08-17T14:02:10;100018.29;;;26.85;61.28
59073;BME280;44859;51.934;15.554;2023-08-17T14:04:38;100020.48;;;26.77;61.21
59073;BME280;44859;51.934;15.554;2023-08-17T14:11:47;100024.82;;;26.74;61.58
59073;BME280;44859;51.934;15.554;2023-08-17T14:14:30;100023.65;;;26.71;61.68
59073;BME280;44859;51.934;15.554;2023-08-17T14:17:19;100020.20;;;26.62;62.21
59073;BME280;44859;51.934;15.554;2023-08-17T14:20:23;100023.18;;;26.62;62.22
59073;BME280;44859;51.934;15.554;2023-08-17T14:22:59;100023.61;;;26.64;62.06
59073;BME280;44859;51.934;15.554;2023-08-17T14:28:09;100021.70;;;26.47;62.28
59073;BME280;44859;51.934;15.554;2023-08-17T14:30:56;100025.55;;;26.39;62.91
59073;BME280;44859;51.934;15.554;2023-08-17T14:33:36;100025.62;;;26.39;62.97
59073;BME280;44859;51.934;15.554;2023-08-17T14:36:10;100029.49;;;26.41;62.71
59073;BME280;44859;51.934;15.554;2023-08-17T14:38:38;100028.90;;;26.40;62.28
59073;BME280;44859;51.934;15.554;2023-08-17T14:41:37;100028.63;;;26.39;62.31
59073;BME280;44859;51.934;15.554;2023-08-17T14:44:07;100028.05;;;26.38;62.42
59073;BME280;44859;51.934;15.554;2023-08-17T14:46:49;100030.23;;;26.31;62.63
59073;BME280;44859;51.934;15.554;2023-08-17T14:52:56;100025.14;;;26.01;62.47
59073;BME280;44859;51.934;15.554;2023-08-17T15:01:00;100029.33;;;26.12;63.59
59073;BME280;44859;51.934;15.554;2023-08-17T15:09:06;100020.86;;;25.91;63.13
59073;BME280;44859;51.934;15.554;2023-08-17T15:11:41;100015.05;;;25.88;63.53
59073;BME280;44859;51.934;15.554;2023-08-17T15:15:01;100012.27;;;25.83;63.86
59073;BME280;44859;51.934;15.554;2023-08-17T15:17:30;100015.33;;;25.83;64.02
59073;BME280;44859;51.934;15.554;2023-08-17T15:20:05;100013.48;;;25.82;64.24
59073;BME280;44859;51.934;15.554;2023-08-17T15:22:39;100016.39;;;25.80;64.47
59073;BME280;44859;51.934;15.554;2023-08-17T15:35:24;100002.42;;;25.65;64.81
59073;BME280;44859;51.934;15.554;2023-08-17T15:38:39;100003.95;;;25.64;64.90
59073;BME280;44859;51.934;15.554;2023-08-17T15:47:43;100005.83;;;25.54;65.27
59073;BME280;44859;51.934;15.554;2023-08-17T15:51:18;100005.84;;;25.54;65.50
59073;BME280;44859;51.934;15.554;2023-08-17T15:53:31;100009.08;;;25.55;65.85
59073;BME280;44859;51.934;15.554;2023-08-17T15:56:39;100011.65;;;25.53;66.01
59073;BME280;44859;51.934;15.554;2023-08-17T15:59:42;100015.23;;;25.48;66.08
59073;BME280;44859;51.934;15.554;2023-08-17T16:03:26;100013.17;;;25.47;66.24
59073;BME280;44859;51.934;15.554;2023-08-17T16:09:16;100009.29;;;25.41;66.65
59073;BME280;44859;51.934;15.554;2023-08-17T16:11:47;100007.08;;;25.43;67.01
59073;BME280;44859;51.934;15.554;2023-08-17T16:17:41;100006.02;;;25.41;67.45
59073;BME280;44859;51.934;15.554;2023-08-17T16:20:47;100009.19;;;25.41;67.79
59073;BME280;44859;51.934;15.554;2023-08-17T16:23:18;100014.91;;;25.41;67.99
59073;BME280;44859;51.934;15.554;2023-08-17T16:25:57;100014.77;;;25.39;67.90
59073;BME280;44859;51.934;15.554;2023-08-17T16:32:01;100025.86;;;25.35;68.76
59073;BME280;44859;51.934;15.554;2023-08-17T16:35:07;100018.10;;;25.31;68.73
59073;BME280;44859;51.934;15.554;2023-08-17T16:37:37;100016.60;;;25.28;68.95
59073;BME280;44859;51.934;15.554;2023-08-17T16:46:48;100017.58;;;25.12;69.83
59073;BME280;44859;51.934;15.554;2023-08-17T16:49:27;100010.53;;;25.07;69.95
59073;BME280;44859;51.934;15.554;2023-08-17T16:56:27;100022.55;;;24.97;70.29
59073;BME280;44859;51.934;15.554;2023-08-17T16:59:18;100019.07;;;24.97;70.39
59073;BME280;44859;51.934;15.554;2023-08-17T17:01:58;100018.12;;;24.93;70.67
59073;BME280;44859;51.934;15.554;2023-08-17T17:05:02;100022.56;;;24.90;70.87
59073;BME280;44859;51.934;15.554;2023-08-17T17:07:29;100024.83;;;24.88;71.17
59073;BME280;44859;51.934;15.554;2023-08-17T17:10:29;100026.98;;;24.88;71.27
59073;BME280;44859;51.934;15.554;2023-08-17T17:13:38;100026.20;;;24.85;71.66
59073;BME280;44859;51.934;15.554;2023-08-17T17:16:36;100019.70;;;24.78;71.80
59073;BME280;44859;51.934;15.554;2023-08-17T17:19:27;100029.02;;;24.72;72.19
59073;BME280;44859;51.934;15.554;2023-08-17T17:21:55;100026.89;;;24.65;72.29
59073;BME280;44859;51.934;15.554;2023-08-17T17:24:32;100030.31;;;24.61;72.49
59073;BME280;44859;51.934;15.554;2023-08-17T17:27:09;100032.48;;;24.57;72.75
59073;BME280;44859;51.934;15.554;2023-08-17T17:29:49;100035.21;;;24.53;72.93
59073;BME280;44859;51.934;15.554;2023-08-17T17:32:16;100036.73;;;24.49;73.03
59073;BME280;44859;51.934;15.554;2023-08-17T17:34:53;100039.09;;;24.44;73.42
59073;BME280;44859;51.934;15.554;2023-08-17T17:40:34;100042.60;;;24.30;73.82
59073;BME280;44859;51.934;15.554;2023-08-17T17:43:04;100041.05;;;24.26;74.01
59073;BME280;44859;51.934;15.554;2023-08-17T17:45:34;100039.69;;;24.20;74.32
59073;BME280;44859;51.934;15.554;2023-08-17T17:48:08;100040.13;;;24.13;74.70
59073;BME280;44859;51.934;15.554;2023-08-17T17:50:47;100044.17;;;24.06;74.87
59073;BME280;44859;51.934;15.554;2023-08-17T17:53:20;100053.73;;;24.00;75.18
59073;BME280;44859;51.934;15.554;2023-08-17T17:55:57;100054.30;;;23.93;75.51
59073;BME280;44859;51.934;15.554;2023-08-17T17:58:27;100051.29;;;23.89;75.65
59073;BME280;44859;51.934;15.554;2023-08-17T18:01:18;100050.05;;;23.83;76.20
59073;BME280;44859;51.934;15.554;2023-08-17T18:03:59;100049.05;;;23.75;76.80
59073;BME280;44859;51.934;15.554;2023-08-17T18:06:37;100046.97;;;23.67;76.99
59073;BME280;44859;51.934;15.554;2023-08-17T18:09:13;100042.75;;;23.61;77.44
59073;BME280;44859;51.934;15.554;2023-08-17T18:15:20;100047.94;;;23.50;78.00
59073;BME280;44859;51.934;15.554;2023-08-17T18:17:50;100053.23;;;23.47;78.25
59073;BME280;44859;51.934;15.554;2023-08-17T18:20:39;100055.86;;;23.46;78.38
59073;BME280;44859;51.934;15.554;2023-08-17T18:26:19;100041.59;;;23.42;78.90
59073;BME280;44859;51.934;15.554;2023-08-17T18:28:49;100036.39;;;23.40;79.02
59073;BME280;44859;51.934;15.554;2023-08-17T18:31:23;100029.57;;;23.40;79.12
59073;BME280;44859;51.934;15.554;2023-08-17T18:36:47;100028.46;;;23.41;78.97
59073;BME280;44859;51.934;15.554;2023-08-17T18:43:42;100023.00;;;23.38;78.98
59073;BME280;44859;51.934;15.554;2023-08-17T19:18:00;99998.85;;;22.77;81.32
59073;BME280;44859;51.934;15.554;2023-08-17T19:20:28;100002.48;;;22.65;81.67
59073;BME280;44859;51.934;15.554;2023-08-17T19:22:56;100001.38;;;22.63;81.84
59073;BME280;44859;51.934;15.554;2023-08-17T19:25:26;100004.09;;;22.57;81.94
59073;BME280;44859;51.934;15.554;2023-08-17T19:27:55;100008.80;;;22.51;82.01
59073;BME280;44859;51.934;15.554;2023-08-17T19:31:05;100006.92;;;22.44;82.15
59073;BME280;44859;51.934;15.554;2023-08-17T19:33:37;100002.38;;;22.34;81.90
59073;BME280;44859;51.934;15.554;2023-08-17T19:36:15;100009.25;;;22.31;81.92
59073;BME280;44859;51.934;15.554;2023-08-17T19:38:48;100007.95;;;22.32;82.09
59073;BME280;44859;51.934;15.554;2023-08-17T19:41:18;100010.73;;;22.33;82.16
59073;BME280;44859;51.934;15.554;2023-08-17T19:45:06;100012.77;;;22.34;82.44
59073;BME280;44859;51.934;15.554;2023-08-17T19:47:37;100025.38;;;22.31;82.53
59073;BME280;44859;51.934;15.554;2023-08-17T19:50:44;100023.23;;;22.29;83.05
59073;BME280;44859;51.934;15.554;2023-08-17T20:11:51;100032.39;;;22.09;83.22
59073;BME280;44859;51.934;15.554;2023-08-17T20:15:18;100039.02;;;22.01;82.77
59073;BME280;44859;51.934;15.554;2023-08-17T20:17:50;100035.49;;;21.99;82.52
59073;BME280;44859;51.934;15.554;2023-08-17T20:20:57;100031.83;;;21.94;81.96
59073;BME280;44859;51.934;15.554;2023-08-17T20:23:30;100031.41;;;21.89;81.70
59073;BME280;44859;51.934;15.554;2023-08-17T20:30:27;100031.45;;;21.81;80.90
59073;BME280;44859;51.934;15.554;2023-08-17T20:33:40;100024.29;;;21.69;80.25
59073;BME280;44859;51.934;15.554;2023-08-17T20:36:14;100013.96;;;21.63;80.02
59073;BME280;44859;51.934;15.554;2023-08-17T20:39:48;100017.47;;;21.56;79.74
59073;BME280;44859;51.934;15.554;2023-08-17T20:51:28;100020.28;;;21.54;78.69
59073;BME280;44859;51.934;15.554;2023-08-17T20:54:29;100023.30;;;21.54;77.93
59073;BME280;44859;51.934;15.554;2023-08-17T21:00:31;100039.88;;;21.50;77.40
59073;BME280;44859;51.934;15.554;2023-08-17T21:03:44;100045.52;;;21.47;77.02
59073;BME280;44859;51.934;15.554;2023-08-17T21:06:14;100043.86;;;21.50;76.82
59073;BME280;44859;51.934;15.554;2023-08-17T21:09:08;100045.42;;;21.57;76.79
59073;BME280;44859;51.934;15.554;2023-08-17T21:12:07;100048.38;;;21.60;76.57
59073;BME280;44859;51.934;15.554;2023-08-17T21:14:48;100050.55;;;21.59;76.14